createdAt,value
2018-12-13T00:02:19.091Z,2.45
2018-12-13T00:07:22.054Z,2.51
2018-12-13T00:12:22.831Z,2.34
2018-12-13T00:17:25.841Z,2.15
2018-12-13T00:22:26.667Z,2.07
2018-12-13T00:27:27.616Z,2.06
2018-12-13T00:32:28.483Z,2.00
2018-12-13T00:37:31.108Z,1.87
2018-12-13T00:42:32.032Z,1.93
2018-12-13T00:47:33.005Z,2.00
2018-12-13T00:52:33.939Z,1.90
2018-12-13T00:57:34.814Z,1.65
2018-12-13T01:02:35.847Z,1.48
2018-12-13T01:07:36.710Z,1.37
2018-12-13T01:12:37.469Z,1.33
2018-12-13T01:17:38.415Z,1.26
2018-12-13T01:22:39.285Z,1.17
2018-12-13T01:27:40.345Z,1.27
2018-12-13T01:32:41.284Z,1.03
2018-12-13T01:37:42.007Z,0.98
2018-12-13T01:42:43.821Z,0.84
2018-12-13T01:47:44.647Z,0.74
2018-12-13T01:52:45.404Z,0.69
2018-12-13T01:57:46.147Z,0.71
2018-12-13T02:02:47.026Z,0.77
2018-12-13T09:13:02.855Z,0.42
2018-12-13T09:18:03.866Z,0.67
2018-12-13T09:23:04.744Z,0.71
2018-12-13T09:28:05.724Z,0.63
2018-12-13T09:33:07.561Z,0.80
2018-12-13T09:38:08.347Z,0.39
2018-12-13T09:43:10.311Z,0.34
2018-12-13T09:48:11.250Z,0.60
2018-12-13T09:53:12.211Z,1.05
2018-12-13T09:58:13.254Z,1.15
2018-12-13T10:03:14.136Z,1.46
2018-12-13T10:08:14.993Z,1.05
2018-12-13T10:13:17.067Z,1.12
2018-12-13T10:18:17.970Z,1.38
2018-12-13T10:23:18.746Z,1.44
2018-12-13T10:28:19.695Z,1.86
2018-12-13T10:33:20.573Z,1.51
2018-12-13T10:43:56.663Z,1.93
2018-12-13T10:49:04.654Z,1.88
2018-12-13T10:54:05.406Z,1.89
2018-12-13T10:59:06.245Z,2.18
2018-12-13T11:04:08.089Z,2.38
2018-12-13T11:09:08.861Z,2.43
2018-12-13T11:14:11.833Z,2.61
2018-12-13T11:19:13.722Z,2.52
2018-12-13T11:24:14.576Z,2.59
2018-12-13T11:29:27.649Z,1.95
2018-12-13T11:34:28.840Z,2.05
2018-12-13T11:39:29.727Z,2.66
2018-12-13T11:44:30.717Z,2.56
2018-12-13T11:49:31.515Z,2.73
2018-12-13T11:54:33.991Z,2.84
2018-12-13T11:59:34.872Z,2.62
2018-12-13T12:04:35.761Z,2.85
2018-12-13T12:09:36.682Z,2.45
2018-12-13T12:14:37.736Z,2.33
2018-12-13T12:19:39.541Z,2.13
2018-12-13T12:24:41.413Z,2.10
2018-12-13T12:29:42.254Z,2.11
2018-12-13T12:34:43.021Z,2.29
2018-12-13T12:39:43.884Z,2.68
2018-12-13T12:44:44.730Z,2.57
2018-12-13T12:49:45.698Z,2.63
2018-12-13T12:54:46.686Z,2.53
2018-12-13T12:59:47.593Z,2.58
2018-12-13T13:04:48.682Z,2.33
2018-12-13T13:09:49.725Z,2.61
2018-12-13T13:14:50.652Z,2.28
2018-12-13T13:19:51.624Z,2.62
2018-12-13T13:24:52.577Z,2.31
2018-12-13T13:29:53.474Z,2.17
2018-12-13T13:34:54.367Z,1.99
2018-12-13T13:39:55.235Z,2.07
2018-12-13T13:44:58.161Z,1.96
2018-12-13T13:49:58.998Z,1.71
2018-12-13T13:54:59.872Z,1.83
2018-12-13T14:00:00.753Z,1.69
2018-12-13T14:05:02.570Z,1.61
2018-12-13T14:10:04.964Z,1.49
2018-12-13T14:15:05.983Z,1.47
2018-12-13T14:20:07.074Z,1.27
2018-12-13T14:25:07.945Z,1.17
2018-12-13T14:30:09.034Z,1.15
2018-12-13T14:35:10.058Z,1.03
2018-12-13T14:40:10.970Z,0.99
2018-12-13T14:45:13.815Z,0.93
2018-12-13T14:50:14.761Z,0.95
2018-12-13T14:55:15.739Z,0.96
2018-12-13T15:00:16.832Z,1.01
2018-12-13T15:05:18.364Z,1.01
2018-12-13T15:10:19.604Z,1.00
2018-12-13T15:15:20.482Z,1.06
2018-12-13T15:20:21.346Z,1.06
2018-12-13T15:25:22.274Z,1.14
2018-12-13T15:30:23.017Z,1.11
2018-12-13T15:35:23.996Z,1.06
2018-12-13T15:40:24.946Z,1.11
2018-12-13T15:51:00.574Z,1.02
2018-12-13T15:56:01.388Z,0.91
2018-12-13T16:01:03.402Z,0.96
2018-12-13T16:06:04.345Z,0.96
2018-12-13T16:11:05.230Z,0.82
2018-12-13T16:16:06.156Z,1.40
2018-12-13T16:21:07.165Z,1.09
2018-12-13T16:26:08.043Z,0.96
2018-12-13T16:31:09.096Z,0.90
2018-12-13T16:36:10.013Z,0.85
2018-12-13T16:41:10.888Z,0.85
2018-12-13T16:46:11.768Z,0.96
2018-12-13T16:51:12.766Z,0.93
2018-12-13T16:56:13.692Z,0.98
2018-12-13T17:01:15.906Z,0.79
2018-12-13T17:06:16.872Z,0.76
2018-12-13T17:11:18.238Z,0.71
2018-12-13T17:16:19.167Z,0.80
2018-12-13T17:21:20.177Z,0.62
2018-12-13T17:26:21.060Z,0.63
2018-12-13T17:31:21.907Z,0.64
2018-12-13T17:36:22.789Z,0.64
2018-12-13T17:41:23.690Z,0.64
2018-12-13T17:46:24.547Z,0.53
2018-12-13T17:51:25.518Z,0.69
2018-12-13T17:56:26.568Z,0.69
2018-12-13T18:01:27.643Z,0.61
2018-12-13T18:06:28.487Z,0.41
2018-12-13T18:11:29.531Z,0.50
2018-12-13T18:16:30.431Z,0.48
2018-12-13T18:21:31.264Z,0.88
2018-12-13T18:26:32.147Z,0.61
2018-12-13T18:31:33.073Z,0.62
2018-12-13T18:36:34.025Z,0.60
2018-12-13T18:41:34.877Z,0.70
2018-12-13T18:46:35.756Z,0.51
2018-12-13T18:51:36.613Z,0.71
2018-12-13T18:56:39.685Z,0.62
2018-12-13T19:01:40.527Z,0.73
2018-12-13T19:06:41.376Z,0.54
2018-12-13T19:11:42.250Z,0.49
2018-12-13T19:16:44.059Z,0.52
2018-12-13T19:21:46.229Z,0.45
2018-12-13T19:26:47.308Z,0.49
2018-12-13T19:31:48.233Z,0.50
2018-12-13T19:36:49.175Z,0.56
2018-12-13T19:41:49.926Z,0.59
2018-12-13T19:46:50.798Z,0.86
2018-12-13T19:51:51.633Z,0.60
2018-12-13T19:56:58.626Z,0.68
2018-12-13T20:01:59.613Z,0.56
2018-12-13T20:07:00.535Z,0.74
2018-12-13T20:12:01.508Z,0.66
2018-12-13T20:17:02.476Z,0.74
2018-12-13T20:22:03.512Z,0.92
2018-12-13T20:27:05.219Z,0.82
2018-12-13T20:32:06.392Z,0.70
2018-12-13T20:37:07.407Z,0.64
2018-12-13T20:42:08.258Z,0.55
2018-12-13T20:47:08.996Z,0.53
2018-12-13T20:52:09.779Z,0.66
2018-12-13T20:57:10.720Z,0.66
2018-12-13T21:02:11.993Z,0.70
2018-12-13T21:07:18.949Z,0.70
2018-12-13T21:12:20.052Z,0.75
2018-12-13T21:17:21.001Z,0.73
2018-12-13T21:22:21.890Z,0.64
2018-12-13T21:27:22.822Z,0.63
2018-12-13T21:32:30.783Z,0.54
2018-12-13T21:37:31.587Z,0.52
2018-12-13T21:42:33.013Z,0.42
2018-12-13T21:47:33.906Z,0.55
2018-12-13T21:52:34.872Z,0.56
2018-12-13T21:57:36.115Z,0.53
2018-12-13T22:02:36.989Z,0.63
2018-12-13T22:07:37.943Z,0.64
2018-12-13T22:12:39.073Z,0.52
2018-12-13T22:17:39.965Z,0.56
2018-12-13T22:22:40.803Z,0.73
2018-12-13T22:27:41.868Z,0.76
2018-12-13T22:32:42.925Z,0.83
2018-12-13T22:37:43.775Z,0.57
2018-12-13T22:42:44.539Z,0.56
2018-12-13T22:47:45.684Z,0.44
2018-12-13T22:52:46.557Z,0.35
2018-12-13T22:57:47.397Z,0.35
2018-12-13T23:02:48.271Z,0.49
2018-12-13T23:07:49.329Z,0.47
2018-12-13T23:12:50.184Z,0.40
2018-12-13T23:17:51.104Z,0.37
2018-12-13T23:22:51.873Z,0.31
2018-12-13T23:27:52.820Z,0.53
2018-12-13T23:32:54.017Z,0.43
2018-12-13T23:37:55.162Z,0.26
2018-12-13T23:42:56.100Z,0.20
2018-12-13T23:47:56.989Z,0.46
2018-12-13T23:52:57.816Z,0.72
2018-12-13T23:57:58.883Z,0.30
